createdAt,value
2019-01-11T00:00:46.219Z,1018.62
2019-01-11T00:05:43.293Z,1018.62
2019-01-11T00:10:38.695Z,1018.60
2019-01-11T00:15:34.405Z,1018.43
2019-01-11T00:20:29.983Z,1018.42
2019-01-11T00:25:25.631Z,1018.40
2019-01-11T00:30:21.179Z,1018.36
2019-01-11T00:35:17.697Z,1018.39
2019-01-11T00:40:13.276Z,1018.32
2019-01-11T00:45:09.536Z,1018.32
2019-01-11T00:50:05.120Z,1018.23
2019-01-11T00:55:00.784Z,1018.26
2019-01-11T00:59:56.632Z,1018.20
2019-01-11T01:04:52.580Z,1018.19
2019-01-11T01:09:49.288Z,1017.97
2019-01-11T01:14:44.569Z,1018.13
2019-01-11T01:19:40.284Z,1018.07
2019-01-11T01:24:35.977Z,1018.05
2019-01-11T01:29:31.754Z,1017.94
2019-01-11T01:34:27.526Z,1017.96
2019-01-11T01:39:24.185Z,1017.88
2019-01-11T01:44:20.234Z,1017.80
2019-01-11T01:49:15.988Z,1017.72
2019-01-11T01:54:11.857Z,1017.67
2019-01-11T01:59:07.623Z,1017.55
2019-01-11T02:04:04.360Z,1017.63
2019-01-11T02:09:00.714Z,1017.59
2019-01-11T02:13:55.995Z,1017.57
2019-01-11T02:18:51.513Z,1017.40
2019-01-11T02:23:47.002Z,1017.41
2019-01-11T02:28:43.461Z,1017.31
2019-01-11T02:33:39.031Z,1017.35
2019-01-11T02:38:34.709Z,1017.24
2019-01-11T02:43:30.347Z,1017.34
2019-01-11T02:48:26.937Z,1017.32
2019-01-11T02:53:22.265Z,1017.24
2019-01-11T02:58:17.924Z,1017.17
2019-01-11T03:03:14.365Z,1017.17
2019-01-11T03:08:10.392Z,1017.06
2019-01-11T03:13:06.328Z,1016.91
2019-01-11T03:18:02.804Z,1016.90
2019-01-11T03:22:58.412Z,1016.90
2019-01-11T03:27:54.376Z,1016.78
2019-01-11T03:32:50.133Z,1016.78
2019-01-11T03:37:46.860Z,1016.69
2019-01-11T03:42:42.279Z,1016.81
2019-01-11T03:47:37.960Z,1016.69
2019-01-11T03:52:33.667Z,1016.74
2019-01-11T03:57:29.249Z,1016.72
2019-01-11T04:02:25.014Z,1016.65
2019-01-11T04:07:20.623Z,1016.60
2019-01-11T04:12:16.244Z,1016.61
2019-01-11T04:17:13.035Z,1016.65
2019-01-11T04:22:09.403Z,1016.56
2019-01-11T04:27:06.497Z,1016.51
2019-01-11T04:32:03.662Z,1016.43
2019-01-11T04:36:58.958Z,1016.57
2019-01-11T04:41:54.857Z,1016.53
2019-01-11T04:46:51.456Z,1016.54
2019-01-11T04:51:48.011Z,1016.51
2019-01-11T04:56:44.209Z,1016.48
2019-01-11T05:01:40.719Z,1016.27
2019-01-11T05:06:36.377Z,1016.26
2019-01-11T05:11:31.966Z,1016.30
2019-01-11T05:16:28.781Z,1016.25
2019-01-11T05:21:24.842Z,1016.29
2019-01-11T05:26:20.815Z,1016.20
2019-01-11T05:31:16.225Z,1016.14
2019-01-11T05:36:11.908Z,1016.12
2019-01-11T05:41:08.205Z,1016.06
2019-01-11T05:46:03.967Z,1016.00
2019-01-11T05:50:59.523Z,1016.02
2019-01-11T05:55:55.108Z,1016.16
2019-01-11T06:00:52.215Z,1015.95
2019-01-11T06:05:47.608Z,1016.08
2019-01-11T06:10:43.339Z,1016.09
2019-01-11T06:15:39.029Z,1016.12
2019-01-11T06:20:34.877Z,1016.09
2019-01-11T06:25:31.593Z,1016.05
2019-01-11T06:30:26.953Z,1016.03
2019-01-11T06:35:23.126Z,1016.04
2019-01-11T06:40:18.904Z,1016.00
2019-01-11T06:45:14.526Z,1015.97
2019-01-11T06:50:11.385Z,1015.88
2019-01-11T06:55:06.820Z,1015.95
2019-01-11T07:00:04.234Z,1016.15
2019-01-11T07:04:59.693Z,1016.17
2019-01-11T07:09:55.438Z,1016.15
2019-01-11T07:14:51.042Z,1016.30
2019-01-11T07:19:47.586Z,1016.22
2019-01-11T07:24:42.901Z,1016.26
2019-01-11T07:29:38.407Z,1016.10
2019-01-11T07:34:35.076Z,1016.09
2019-01-11T07:39:31.024Z,1016.00
2019-01-11T07:44:27.324Z,1016.03
2019-01-11T07:49:23.231Z,1016.15
2019-01-11T07:54:19.667Z,1016.26
2019-01-11T07:59:15.668Z,1016.15
2019-01-11T08:04:11.514Z,1016.13
2019-01-11T08:09:07.311Z,1016.11
2019-01-11T08:14:02.898Z,1016.16
2019-01-11T08:18:58.681Z,1016.15
2019-01-11T08:23:54.210Z,1016.18
2019-01-11T08:28:50.098Z,1016.21
2019-01-11T08:33:45.840Z,1016.17
2019-01-11T08:38:42.467Z,1016.26
2019-01-11T08:43:38.979Z,1016.12
2019-01-11T08:48:34.605Z,1016.15
2019-01-11T08:53:30.254Z,1016.06
2019-01-11T08:58:27.151Z,1015.97
2019-01-11T09:03:23.779Z,1015.93
2019-01-11T09:08:19.335Z,1015.96
2019-01-11T09:13:15.338Z,1015.86
2019-01-11T09:18:11.290Z,1015.82
2019-01-11T09:23:07.158Z,1015.95
2019-01-11T09:28:02.813Z,1015.97
2019-01-11T09:32:58.803Z,1015.98
2019-01-11T09:37:54.848Z,1016.12
2019-01-11T09:42:51.875Z,1015.96
2019-01-11T09:47:48.464Z,1015.99
2019-01-11T09:52:43.615Z,1015.95
2019-01-11T09:57:40.202Z,1015.95
2019-01-11T10:02:36.533Z,1015.96
2019-01-11T10:07:32.411Z,1015.92
2019-01-11T10:12:28.327Z,1016.00
2019-01-11T10:17:24.899Z,1015.95
2019-01-11T10:22:22.033Z,1015.83
2019-01-11T10:27:17.578Z,1015.80
2019-01-11T10:32:13.401Z,1015.73
2019-01-11T10:37:09.126Z,1015.70
2019-01-11T10:42:05.459Z,1015.73
2019-01-11T10:47:01.637Z,1015.76
2019-01-11T10:51:57.610Z,1015.74
2019-01-11T10:56:54.170Z,1015.72
2019-01-11T11:01:49.693Z,1015.57
2019-01-11T11:06:45.609Z,1015.62
2019-01-11T11:11:41.468Z,1015.50
2019-01-11T11:16:37.443Z,1015.55
2019-01-11T11:21:34.842Z,1015.53
2019-01-11T11:26:31.116Z,1015.45
2019-01-11T11:31:26.976Z,1015.39
2019-01-11T11:36:22.854Z,1015.31
2019-01-11T11:41:19.720Z,1015.24
2019-01-11T11:46:15.132Z,1015.18
2019-01-11T11:51:11.990Z,1015.10
2019-01-11T11:56:07.415Z,1014.96
2019-01-11T12:01:03.097Z,1014.92
2019-01-11T12:05:58.850Z,1014.82
2019-01-11T12:10:56.033Z,1014.78
2019-01-11T12:15:51.664Z,1014.86
2019-01-11T12:20:47.443Z,1014.78
2019-01-11T12:25:42.843Z,1014.75
2019-01-11T12:30:38.599Z,1014.76
2019-01-11T12:35:34.235Z,1014.69
2019-01-11T12:40:29.561Z,1014.64
2019-01-11T12:45:25.474Z,1014.64
2019-01-11T12:50:20.945Z,1014.49
2019-01-11T12:55:16.836Z,1014.52
2019-01-11T13:00:13.351Z,1014.41
2019-01-11T13:05:08.559Z,1014.33
2019-01-11T13:10:04.813Z,1014.39
2019-01-11T13:15:01.243Z,1014.37
2019-01-11T13:19:58.806Z,1014.28
2019-01-11T13:24:54.201Z,1014.32
2019-01-11T13:29:50.761Z,1014.24
2019-01-11T13:34:45.980Z,1014.19
2019-01-11T13:39:43.539Z,1014.07
2019-01-11T13:44:39.186Z,1014.08
2019-01-11T13:49:34.945Z,1014.13
2019-01-11T13:54:30.712Z,1014.12
2019-01-11T13:59:26.803Z,1014.13
2019-01-11T14:04:22.435Z,1014.09
2019-01-11T14:09:18.370Z,1014.21
2019-01-11T14:14:14.164Z,1014.19
2019-01-11T14:19:09.846Z,1014.24
2019-01-11T14:24:05.155Z,1014.21
2019-01-11T14:29:02.138Z,1014.25
2019-01-11T14:33:57.575Z,1014.22
2019-01-11T14:38:54.002Z,1014.26
2019-01-11T14:43:49.636Z,1014.23
2019-01-11T14:48:46.110Z,1014.21
2019-01-11T14:53:41.804Z,1014.22
2019-01-11T14:58:37.946Z,1014.24
2019-01-11T15:03:33.949Z,1014.22
2019-01-11T15:08:29.566Z,1014.26
2019-01-11T15:13:25.548Z,1014.17
2019-01-11T15:18:21.319Z,1014.04
2019-01-11T15:23:16.963Z,1014.19
2019-01-11T15:28:13.558Z,1014.05
2019-01-11T15:33:10.625Z,1014.08
2019-01-11T15:38:06.110Z,1014.19
2019-01-11T15:43:02.073Z,1014.05
2019-01-11T15:47:57.598Z,1014.01
2019-01-11T15:52:54.393Z,1014.22
2019-01-11T15:57:51.147Z,1014.16
2019-01-11T16:02:47.002Z,1014.14
2019-01-11T16:07:42.604Z,1014.19
2019-01-11T16:12:38.649Z,1014.21
2019-01-11T16:17:34.139Z,1014.18
2019-01-11T16:22:29.928Z,1014.30
2019-01-11T16:27:25.542Z,1014.38
2019-01-11T16:32:21.442Z,1014.42
2019-01-11T16:37:16.934Z,1014.27
2019-01-11T16:42:12.718Z,1014.34
2019-01-11T16:47:08.410Z,1014.31
2019-01-11T16:52:03.998Z,1014.33
2019-01-11T16:57:00.831Z,1014.30
2019-01-11T17:01:56.306Z,1014.36
2019-01-11T17:06:53.164Z,1014.36
2019-01-11T17:11:48.680Z,1014.41
2019-01-11T17:16:44.092Z,1014.41
2019-01-11T17:21:39.954Z,1014.39
2019-01-11T17:26:35.882Z,1014.41
2019-01-11T17:31:31.703Z,1014.49
2019-01-11T17:36:27.296Z,1014.48
2019-01-11T17:41:24.029Z,1014.58
2019-01-11T17:46:20.335Z,1014.59
2019-01-11T17:51:15.809Z,1014.64
2019-01-11T17:56:11.505Z,1014.68
2019-01-11T18:01:08.310Z,1014.83
2019-01-11T18:06:03.969Z,1014.85
2019-01-11T18:10:59.494Z,1014.85
2019-01-11T18:15:55.369Z,1014.78
2019-01-11T18:20:51.156Z,1014.80
2019-01-11T18:25:46.657Z,1014.87
2019-01-11T18:30:43.340Z,1014.89
2019-01-11T18:35:38.872Z,1014.87
2019-01-11T18:40:34.466Z,1014.97
2019-01-11T18:45:30.402Z,1015.04
2019-01-11T18:50:26.117Z,1015.11
2019-01-11T18:55:21.874Z,1015.14
2019-01-11T19:00:17.500Z,1015.14
2019-01-11T19:05:13.685Z,1015.09
2019-01-11T19:10:10.339Z,1015.07
2019-01-11T19:15:05.909Z,1015.11
2019-01-11T19:20:01.508Z,1015.11
2019-01-11T19:24:57.775Z,1015.06
2019-01-11T19:29:54.415Z,1015.13
2019-01-11T19:34:49.634Z,1015.08
2019-01-11T19:39:45.285Z,1015.23
2019-01-11T19:44:44.563Z,1015.11
2019-01-11T19:49:42.746Z,1015.17
2019-01-11T19:54:38.665Z,1015.07
2019-01-11T19:59:34.258Z,1015.17
2019-01-11T20:04:32.224Z,1015.15
2019-01-11T20:09:27.536Z,1015.11
2019-01-11T20:14:24.355Z,1015.29
2019-01-11T20:19:19.799Z,1015.19
2019-01-11T20:24:16.240Z,1015.21
2019-01-11T20:29:11.996Z,1015.23
2019-01-11T20:34:07.835Z,1015.18
2019-01-11T20:39:04.677Z,1015.18
2019-01-11T20:44:00.141Z,1015.10
2019-01-11T20:48:55.729Z,1015.17
2019-01-11T20:53:54.736Z,1015.17
2019-01-11T20:58:49.879Z,1015.25
2019-01-11T21:03:46.968Z,1015.23
2019-01-11T21:08:42.497Z,1015.23
2019-01-11T21:13:38.115Z,1015.28
2019-01-11T21:18:34.294Z,1015.29
2019-01-11T21:23:30.563Z,1015.28
2019-01-11T21:28:26.378Z,1015.24
2019-01-11T21:33:23.363Z,1015.23
2019-01-11T21:38:18.898Z,1015.27
2019-01-11T21:43:19.031Z,1015.24
2019-01-11T21:48:14.772Z,1015.23
2019-01-11T21:53:10.212Z,1015.18
2019-01-11T21:58:07.712Z,1015.30
2019-01-11T22:03:03.092Z,1015.25
2019-01-11T22:07:59.443Z,1015.32
2019-01-11T22:12:55.025Z,1015.25
2019-01-11T22:17:50.940Z,1015.25
2019-01-11T22:22:48.465Z,1015.28
2019-01-11T22:27:44.407Z,1015.23
2019-01-11T22:32:39.850Z,1015.24
2019-01-11T22:37:36.399Z,1015.32
2019-01-11T22:42:31.816Z,1015.33
2019-01-11T22:47:27.495Z,1015.36
2019-01-11T22:52:24.266Z,1015.34
2019-01-11T22:57:20.549Z,1015.32
2019-01-11T23:02:16.412Z,1015.40
2019-01-11T23:07:13.100Z,1015.36
2019-01-11T23:12:08.406Z,1015.40
2019-01-11T23:17:05.388Z,1015.45
2019-01-11T23:22:01.082Z,1015.36
2019-01-11T23:26:56.744Z,1015.27
2019-01-11T23:31:52.473Z,1015.40
2019-01-11T23:36:48.088Z,1015.45
2019-01-11T23:41:43.724Z,1015.43
2019-01-11T23:46:39.511Z,1015.39
2019-01-11T23:51:35.198Z,1015.43
2019-01-11T23:56:31.130Z,1015.34
